Aérodrome :







RETROUVEZ-NOUS SUR...

 
LOGIN :

S'inscrire | Disclaimer

   EN    FR    IT 

 









Légende :    VFR   VFR Marginal   IFR   IFR Intensif   IFR Très Intensif
Visi : 
Plafond : 
>= 8 km
>= 3000ft
5 à 8 km
1000 à 3000 ft
1500m à 5 km
500 à 1000 ft
800 à 1500m
200 à 500 ft
< 800m
< 200 ft
Symboles :   Orages  Brouillard  Fortes neiges  Fortes précipitations  Vent > 20 kt






- Altitude de l'aérodrome : 74 ft
- Code IATA : PMV


SVMG - Del Caribe Int. Gen Santiago M

DERNIER METAR :
  • 062202Z AUTO 09022KT NCD 29/25 Q1010

METARs EXPIRÉS :
  • 062102Z AUTO 09021KT NCD 30/25 Q1010
  • 062002Z AUTO 09020KT NCD 23/24 Q1011

TAF TAF SVMG
Valide du 06 à 18h jusqu'au 07 à 18h UTC


061600Z 0618/0718 22003KT 9999 BKN016 TX32/19Z TN24/09Z
BECMG 0618/0622 34005KT 9999 SCT016 BKN070



MET'MAP, la Météo Aéronautique d'un coup d'oeil ! - Copyright ORBIFLY Décembre 2007 - Disclaimer

ORBIFLY MET'MAP TEAM :

Programmation & Développement : Alexandra Zaïnal
Sur une idée originale de : Baudouin d'Aumeries
Assistance à la programmation : Marc-Olivier Méhu
Soutien technique & logistique : Manuel Goepfert

Contact : metmap@orbifly.com




SOURCES & CREDITS :

   NOAA